createdAt,value
2018-03-02T00:00:47.388Z,109.10
2018-03-02T00:03:15.995Z,113.43
2018-03-02T00:05:44.507Z,111.47
2018-03-02T00:08:13.068Z,116.33
2018-03-02T00:10:41.603Z,120.70
2018-03-02T00:13:10.103Z,115.18
2018-03-02T00:15:38.585Z,115.45
2018-03-02T00:18:07.110Z,117.47
2018-03-02T00:20:35.916Z,126.00
2018-03-02T00:23:04.448Z,130.25
2018-03-02T00:25:32.990Z,129.48
2018-03-02T00:28:01.474Z,144.82
2018-03-02T00:30:30.024Z,140.20
2018-03-02T00:32:58.503Z,142.33
2018-03-02T00:35:27.031Z,151.95
2018-03-02T00:37:55.503Z,149.37
2018-03-02T00:40:24.062Z,150.53
2018-03-02T00:42:52.542Z,142.37
2018-03-02T00:45:21.041Z,140.95
2018-03-02T00:47:49.557Z,139.32
2018-03-02T00:50:18.054Z,137.18
2018-03-02T00:52:46.586Z,141.12
2018-03-02T00:55:15.114Z,136.25
2018-03-02T00:57:43.703Z,141.57
2018-03-02T01:00:12.255Z,138.73
2018-03-02T01:02:40.826Z,145.93
2018-03-02T01:05:09.301Z,132.93
2018-03-02T01:07:37.782Z,136.80
2018-03-02T01:10:06.311Z,132.35
2018-03-02T01:12:34.835Z,125.55
2018-03-02T01:15:03.361Z,131.82
2018-03-02T01:17:31.878Z,128.07
2018-03-02T01:20:00.463Z,121.85
2018-03-02T01:22:28.990Z,119.30
2018-03-02T01:24:57.513Z,123.15
2018-03-02T01:27:25.990Z,119.85
2018-03-02T01:29:54.526Z,124.22
2018-03-02T01:32:23.009Z,117.87
2018-03-02T01:34:51.490Z,121.85
2018-03-02T01:37:20.057Z,124.05
2018-03-02T01:39:48.575Z,127.68
2018-03-02T01:42:17.195Z,133.77
2018-03-02T01:44:45.674Z,136.23
2018-03-02T01:47:14.208Z,135.43
2018-03-02T01:49:42.772Z,132.70
2018-03-02T01:52:11.298Z,136.65
2018-03-02T01:54:39.773Z,137.73
2018-03-02T01:57:08.251Z,142.07
2018-03-02T01:59:36.782Z,142.73
2018-03-02T02:02:05.318Z,152.52
2018-03-02T02:04:33.881Z,152.15
2018-03-02T02:07:02.361Z,153.77
2018-03-02T02:09:30.928Z,152.70
2018-03-02T02:11:59.470Z,152.80
2018-03-02T02:14:28.032Z,150.52
2018-03-02T02:16:56.526Z,154.90
2018-03-02T02:19:25.062Z,150.77
2018-03-02T02:21:53.603Z,151.95
2018-03-02T02:24:22.134Z,153.87
2018-03-02T02:26:50.663Z,152.00
2018-03-02T02:29:19.202Z,152.77
2018-03-02T02:31:47.710Z,152.40
2018-03-02T02:34:16.232Z,142.95
2018-03-02T02:36:44.755Z,158.57
2018-03-02T02:39:13.251Z,141.35
2018-03-02T02:41:41.819Z,140.50
2018-03-02T02:44:10.363Z,141.40
2018-03-02T02:46:38.863Z,133.85
2018-03-02T02:49:07.391Z,133.93
2018-03-02T02:51:35.876Z,131.65
2018-03-02T02:54:04.408Z,130.07
2018-03-02T02:56:32.954Z,137.15
2018-03-02T02:59:01.507Z,135.40
2018-03-02T03:01:29.991Z,147.43
2018-03-02T03:03:58.550Z,144.43
2018-03-02T03:06:27.088Z,143.95
2018-03-02T03:08:55.622Z,149.90
2018-03-02T03:11:24.200Z,164.65
2018-03-02T03:13:52.730Z,157.15
2018-03-02T03:16:21.258Z,147.93
2018-03-02T03:18:49.791Z,153.68
2018-03-02T03:21:18.291Z,144.80
2018-03-02T03:23:46.828Z,141.65
2018-03-02T03:26:15.314Z,147.00
2018-03-02T03:28:43.836Z,136.93
2018-03-02T03:31:12.367Z,139.77
2018-03-02T03:33:40.932Z,119.30
2018-03-02T03:36:09.447Z,106.82
2018-03-02T03:38:37.971Z,107.20
2018-03-02T03:41:06.469Z,103.68
2018-03-02T03:43:35.051Z,90.45
2018-03-02T03:46:03.570Z,103.22
2018-03-02T03:48:32.094Z,100.15
2018-03-02T03:51:00.622Z,103.00
2018-03-02T03:53:29.120Z,100.87
2018-03-02T03:55:57.647Z,101.35
2018-03-02T03:58:26.217Z,95.00
2018-03-02T04:00:54.734Z,93.32
2018-03-02T04:03:23.242Z,93.57
2018-03-02T04:05:51.802Z,96.20
2018-03-02T04:08:20.278Z,98.10
2018-03-02T04:10:48.787Z,90.75
2018-03-02T04:13:17.301Z,86.80
2018-03-02T04:15:45.782Z,92.28
2018-03-02T04:18:14.637Z,96.30
2018-03-02T04:20:43.123Z,90.72
2018-03-02T04:23:11.687Z,90.93
2018-03-02T04:25:40.219Z,97.25
2018-03-02T04:28:08.751Z,96.22
2018-03-02T04:30:38.002Z,96.45
2018-03-02T04:33:06.518Z,96.35
2018-03-02T04:35:35.034Z,84.70
2018-03-02T04:38:03.528Z,81.85
2018-03-02T04:40:32.046Z,86.32
2018-03-02T04:43:00.570Z,81.43
2018-03-02T04:45:29.108Z,87.20
2018-03-02T04:47:57.622Z,88.57
2018-03-02T04:50:26.148Z,87.80
2018-03-02T04:52:54.684Z,84.10
2018-03-02T04:55:23.181Z,83.28
2018-03-02T04:57:51.690Z,84.35
2018-03-02T05:00:20.240Z,89.27
2018-03-02T05:02:48.763Z,88.97
2018-03-02T05:05:17.282Z,80.87
2018-03-02T05:07:45.773Z,71.47
2018-03-02T05:10:14.284Z,71.23
2018-03-02T05:12:42.751Z,71.45
2018-03-02T05:15:11.273Z,66.82
2018-03-02T05:17:39.794Z,108.25
2018-03-02T05:20:08.338Z,118.73
2018-03-02T05:22:36.862Z,130.02
2018-03-02T05:25:05.381Z,126.47
2018-03-02T05:27:33.939Z,134.30
2018-03-02T05:30:02.503Z,139.67
2018-03-02T05:32:31.039Z,129.87
2018-03-02T05:34:59.520Z,132.00
2018-03-02T05:37:28.072Z,132.37
2018-03-02T05:39:56.758Z,144.67
2018-03-02T05:42:25.235Z,135.43
2018-03-02T05:44:53.723Z,132.30
2018-03-02T05:47:22.346Z,141.20
2018-03-02T05:49:50.916Z,142.23
2018-03-02T05:52:19.394Z,138.97
2018-03-02T05:54:47.886Z,145.13
2018-03-02T05:57:16.443Z,139.20
2018-03-02T05:59:45.023Z,134.37
2018-03-02T06:02:13.674Z,139.50
2018-03-02T06:04:42.179Z,145.83
2018-03-02T06:07:10.686Z,143.57
2018-03-02T06:09:39.167Z,140.40
2018-03-02T06:12:07.684Z,142.93
2018-03-02T06:14:36.238Z,147.20
2018-03-02T06:17:04.778Z,134.83
2018-03-02T06:19:33.296Z,136.87
2018-03-02T06:22:01.818Z,133.70
2018-03-02T06:24:30.338Z,132.27
2018-03-02T06:26:58.877Z,128.60
2018-03-02T06:29:27.357Z,125.13
2018-03-02T06:31:55.887Z,134.77
2018-03-02T06:34:24.458Z,153.57
2018-03-02T06:36:52.934Z,77.83
2018-03-02T06:39:21.482Z,54.27
2018-03-02T06:41:50.062Z,40.87
2018-03-02T06:44:18.582Z,45.97
2018-03-02T06:46:47.084Z,45.23
2018-03-02T06:49:15.726Z,140.23
2018-03-02T06:51:44.227Z,126.13
2018-03-02T06:54:12.782Z,56.20
2018-03-02T06:56:41.253Z,37.50
2018-03-02T06:59:09.751Z,35.43
2018-03-02T07:01:38.258Z,101.00
2018-03-02T07:04:06.805Z,57.07
2018-03-02T07:06:35.392Z,89.43
2018-03-02T07:09:04.005Z,136.43
2018-03-02T07:11:32.572Z,144.00
2018-03-02T07:14:01.085Z,134.80
2018-03-02T07:16:29.610Z,129.63
2018-03-02T07:18:58.110Z,126.90
2018-03-02T07:21:26.629Z,136.57
2018-03-02T07:23:55.267Z,132.90
2018-03-02T07:26:23.797Z,124.87
2018-03-02T07:28:52.333Z,129.73
2018-03-02T07:31:20.932Z,132.43
2018-03-02T07:33:49.409Z,116.97
2018-03-02T07:36:18.120Z,126.43
2018-03-02T07:38:46.592Z,117.03
2018-03-02T07:41:15.191Z,120.63
2018-03-02T07:43:43.663Z,119.90
2018-03-02T07:46:12.158Z,111.17
2018-03-02T07:48:40.661Z,117.53
2018-03-02T07:51:09.192Z,120.17
2018-03-02T07:53:37.668Z,116.27
2018-03-02T07:56:06.161Z,111.60
2018-03-02T07:58:34.715Z,115.57
2018-03-02T08:01:03.189Z,117.03
2018-03-02T08:03:31.743Z,108.03
2018-03-02T08:06:00.283Z,71.77
2018-03-02T08:08:28.878Z,52.70
2018-03-02T08:10:57.384Z,48.70
2018-03-02T08:13:25.912Z,48.40
2018-03-02T08:15:54.429Z,47.27
2018-03-02T08:18:22.926Z,52.17
2018-03-02T08:20:51.458Z,44.93
2018-03-02T08:23:19.994Z,45.03
2018-03-02T08:25:48.538Z,43.93
2018-03-02T08:28:17.048Z,45.57
2018-03-02T08:30:45.541Z,49.30
2018-03-02T08:33:14.059Z,48.93
2018-03-02T08:35:42.582Z,49.13
2018-03-02T08:38:11.166Z,46.33
2018-03-02T08:40:39.686Z,43.83
2018-03-02T08:43:08.225Z,45.20
2018-03-02T08:45:36.728Z,45.00
2018-03-02T08:48:05.292Z,41.80
2018-03-02T08:50:33.841Z,47.27
2018-03-02T08:53:02.370Z,43.20
2018-03-02T08:55:30.887Z,40.47
2018-03-02T08:57:59.389Z,47.30
2018-03-02T09:00:27.916Z,45.83
2018-03-02T09:02:56.472Z,46.97
2018-03-02T09:05:24.993Z,47.43
2018-03-02T09:07:53.518Z,45.60
2018-03-02T09:10:22.022Z,50.60
2018-03-02T09:12:50.555Z,45.17
2018-03-02T09:15:19.059Z,49.00
2018-03-02T09:17:47.565Z,49.13
2018-03-02T09:20:16.078Z,54.13
2018-03-02T09:22:44.614Z,49.53
2018-03-02T09:25:13.109Z,50.83
2018-03-02T09:27:41.575Z,54.57
2018-03-02T09:30:10.119Z,54.17
2018-03-02T09:32:38.650Z,52.27
2018-03-02T09:35:07.187Z,55.43
2018-03-02T09:37:35.664Z,52.53
2018-03-02T09:40:04.227Z,50.07
2018-03-02T09:42:32.768Z,48.20
2018-03-02T09:45:01.256Z,51.03
2018-03-02T09:47:29.835Z,49.67
2018-03-02T09:49:58.306Z,56.00
2018-03-02T09:52:26.783Z,52.97
2018-03-02T09:54:55.291Z,53.13
2018-03-02T09:57:23.799Z,53.10
2018-03-02T09:59:52.309Z,48.20
2018-03-02T10:02:20.850Z,44.00
2018-03-02T10:04:49.345Z,46.40
2018-03-02T10:07:17.887Z,47.30
2018-03-02T10:09:46.356Z,43.17
2018-03-02T10:12:14.851Z,46.13
2018-03-02T10:14:43.325Z,44.63
2018-03-02T10:17:11.833Z,43.73
2018-03-02T10:19:40.355Z,49.47
2018-03-02T10:22:08.875Z,54.93
2018-03-02T10:24:37.359Z,51.83
2018-03-02T10:27:05.831Z,36.67
2018-03-02T10:29:34.360Z,37.57
2018-03-02T10:32:02.866Z,36.73
2018-03-02T10:34:31.414Z,33.80
2018-03-02T10:36:59.914Z,31.63
2018-03-02T10:39:28.398Z,34.93
2018-03-02T10:41:56.938Z,30.50
2018-03-02T10:44:25.466Z,33.27
2018-03-02T10:46:53.926Z,33.43
2018-03-02T10:49:22.383Z,34.33
2018-03-02T10:51:51.006Z,34.13
2018-03-02T10:54:19.616Z,34.60
2018-03-02T10:56:48.093Z,32.37
2018-03-02T10:59:16.638Z,33.90
2018-03-02T11:01:50.638Z,33.33
2018-03-02T11:04:19.115Z,34.83
2018-03-02T11:06:47.650Z,37.13
2018-03-02T11:09:16.178Z,37.23
2018-03-02T11:11:44.691Z,35.80
2018-03-02T11:14:13.319Z,40.63
2018-03-02T11:16:41.767Z,32.23
2018-03-02T11:19:10.281Z,33.67
2018-03-02T11:21:38.746Z,35.23
2018-03-02T11:24:07.246Z,34.20
2018-03-02T11:26:35.733Z,33.60
2018-03-02T11:29:04.244Z,36.00
2018-03-02T11:31:32.785Z,39.53
2018-03-02T11:34:01.243Z,40.87
2018-03-02T11:36:29.773Z,39.83
2018-03-02T11:38:58.284Z,39.73
2018-03-02T11:41:26.795Z,47.33
2018-03-02T11:43:55.306Z,41.10
2018-03-02T11:46:23.809Z,40.60
2018-03-02T11:48:52.341Z,41.23
2018-03-02T11:51:20.844Z,45.53
2018-03-02T11:53:49.382Z,43.57
2018-03-02T11:56:17.886Z,37.67
2018-03-02T11:58:46.355Z,38.20
2018-03-02T12:01:14.888Z,41.67
2018-03-02T12:03:43.431Z,39.70
2018-03-02T12:06:11.955Z,42.20
2018-03-02T12:08:40.503Z,40.40
2018-03-02T12:11:09.032Z,42.17
2018-03-02T12:13:37.572Z,41.67
2018-03-02T12:16:06.058Z,40.70
2018-03-02T12:18:34.504Z,41.43
2018-03-02T12:21:03.000Z,39.67
2018-03-02T12:23:31.545Z,41.63
2018-03-02T12:26:00.024Z,47.30
2018-03-02T12:28:28.593Z,43.20
2018-03-02T12:30:57.104Z,45.77
2018-03-02T12:35:48.826Z,41.20
2018-03-02T12:38:17.307Z,39.63
2018-03-02T12:40:45.902Z,38.93
2018-03-02T12:43:14.534Z,42.13
2018-03-02T12:45:42.999Z,41.27
2018-03-02T12:48:11.455Z,42.83
2018-03-02T12:50:40.131Z,43.70
2018-03-02T12:53:08.610Z,43.93
2018-03-02T12:55:37.102Z,47.33
2018-03-02T12:58:05.561Z,45.40
2018-03-02T13:00:34.105Z,44.60
2018-03-02T13:03:02.672Z,46.27
2018-03-02T13:05:31.146Z,44.47
2018-03-02T13:07:59.711Z,43.23
2018-03-02T13:10:28.214Z,45.93
2018-03-02T13:12:56.730Z,45.47
2018-03-02T13:15:25.199Z,43.17
2018-03-02T13:17:53.697Z,46.23
2018-03-02T13:20:22.234Z,45.23
2018-03-02T13:22:50.742Z,44.23
2018-03-02T13:25:19.275Z,43.80
2018-03-02T13:27:59.426Z,43.63
2018-03-02T13:30:27.917Z,43.40
2018-03-02T13:33:07.998Z,46.50
2018-03-02T13:35:36.577Z,42.33
2018-03-02T13:38:05.078Z,38.23
2018-03-02T13:40:45.242Z,42.30
2018-03-02T13:43:13.699Z,40.87
2018-03-02T13:45:42.228Z,41.20
2018-03-02T13:51:10.414Z,40.57
2018-03-02T13:53:39.034Z,45.87
2018-03-02T13:56:07.630Z,41.30
2018-03-02T13:58:36.078Z,44.67
2018-03-02T14:01:04.697Z,43.63
2018-03-02T14:03:44.799Z,43.97
2018-03-02T14:06:13.289Z,41.30
2018-03-02T14:08:41.801Z,43.67
2018-03-02T14:11:10.302Z,44.23
2018-03-02T14:13:38.802Z,48.40
2018-03-02T14:16:07.370Z,45.67
2018-03-02T14:18:35.858Z,46.57
2018-03-02T14:21:04.389Z,43.50
2018-03-02T14:23:32.923Z,45.07
2018-03-02T14:26:01.452Z,40.63
2018-03-02T14:28:29.977Z,43.63
2018-03-02T14:30:58.519Z,45.17
2018-03-02T14:33:27.044Z,44.73
2018-03-02T14:35:55.594Z,42.40
2018-03-02T14:38:24.056Z,40.93
2018-03-02T14:40:52.598Z,54.63
2018-03-02T14:43:21.130Z,41.93
2018-03-02T14:45:49.730Z,42.40
2018-03-02T14:48:18.252Z,46.20
2018-03-02T14:50:46.722Z,44.67
2018-03-02T14:53:15.267Z,42.33
2018-03-02T14:55:43.750Z,44.70
2018-03-02T14:58:12.259Z,40.07
2018-03-02T15:00:40.798Z,41.83
2018-03-02T15:03:09.360Z,43.73
2018-03-02T15:05:38.615Z,42.60
2018-03-02T15:08:07.116Z,42.27
2018-03-02T15:10:35.618Z,42.03
2018-03-02T15:13:04.102Z,43.27
2018-03-02T15:15:32.610Z,43.47
2018-03-02T15:18:01.094Z,44.87
2018-03-02T15:20:29.631Z,40.97
2018-03-02T15:22:58.155Z,43.20
2018-03-02T15:25:26.674Z,41.97
2018-03-02T15:27:55.150Z,41.27
2018-03-02T15:30:23.663Z,43.43
2018-03-02T15:32:52.246Z,46.60
2018-03-02T15:35:20.702Z,48.20
2018-03-02T15:37:49.179Z,47.47
2018-03-02T15:40:17.685Z,42.40
2018-03-02T15:42:46.224Z,41.50
2018-03-02T15:45:14.722Z,44.80
2018-03-02T15:47:43.303Z,51.27
2018-03-02T15:50:11.839Z,45.67
2018-03-02T15:52:40.326Z,45.83
2018-03-02T15:55:08.828Z,43.13
2018-03-02T15:57:37.315Z,48.17
2018-03-02T16:00:05.817Z,44.43
2018-03-02T16:02:34.350Z,49.23
2018-03-02T16:05:02.882Z,46.17
2018-03-02T16:07:31.385Z,47.40
2018-03-02T16:09:59.862Z,44.13
2018-03-02T16:12:28.321Z,44.60
2018-03-02T16:14:56.886Z,44.67
2018-03-02T16:17:25.358Z,45.13
2018-03-02T16:19:53.869Z,57.93
2018-03-02T16:22:22.348Z,51.60
2018-03-02T16:24:50.854Z,57.43
2018-03-02T16:27:19.343Z,62.27
2018-03-02T16:29:47.830Z,50.07
2018-03-02T16:32:16.290Z,51.77
2018-03-02T16:34:44.950Z,52.67
2018-03-02T16:37:13.422Z,48.30
2018-03-02T16:39:41.922Z,48.60
2018-03-02T16:42:10.399Z,54.03
2018-03-02T16:44:38.908Z,49.93
2018-03-02T16:47:07.402Z,48.67
2018-03-02T16:49:35.898Z,58.37
2018-03-02T16:52:04.459Z,52.13
2018-03-02T16:54:32.919Z,55.87
2018-03-02T16:57:01.422Z,70.37
2018-03-02T16:59:29.892Z,60.57
2018-03-02T17:01:58.422Z,54.43
2018-03-02T17:04:26.883Z,55.30
2018-03-02T17:06:55.426Z,54.73
2018-03-02T17:09:23.926Z,56.53
2018-03-02T17:11:52.438Z,57.77
2018-03-02T17:14:20.926Z,57.37
2018-03-02T17:16:49.431Z,71.20
2018-03-02T17:19:17.927Z,75.30
2018-03-02T17:21:46.386Z,57.93
2018-03-02T17:24:14.882Z,72.97
2018-03-02T17:26:43.378Z,65.60
2018-03-02T17:29:11.875Z,61.67
2018-03-02T17:31:40.370Z,53.03
2018-03-02T17:34:08.910Z,55.90
2018-03-02T17:36:37.397Z,56.40
2018-03-02T17:39:05.859Z,64.43
2018-03-02T17:41:34.318Z,56.93
2018-03-02T17:44:02.800Z,64.73
2018-03-02T17:46:31.290Z,62.97
2018-03-02T17:48:59.767Z,59.03
2018-03-02T17:51:28.280Z,60.87
2018-03-02T17:53:56.742Z,60.97
2018-03-02T17:56:25.280Z,59.30
2018-03-02T17:58:53.814Z,59.87
2018-03-02T18:01:22.381Z,56.97
2018-03-02T18:03:50.846Z,57.00
2018-03-02T18:06:19.550Z,58.73
2018-03-02T18:08:48.093Z,58.93
2018-03-02T18:11:16.601Z,63.30
2018-03-02T18:13:45.079Z,66.50
2018-03-02T18:16:13.534Z,66.97
2018-03-02T18:18:42.029Z,63.47
2018-03-02T18:21:10.486Z,56.90
2018-03-02T18:23:38.986Z,60.03
2018-03-02T18:26:07.474Z,60.27
2018-03-02T18:28:36.032Z,61.13
2018-03-02T18:31:04.530Z,59.30
2018-03-02T18:33:33.022Z,62.63
2018-03-02T18:36:01.482Z,62.77
2018-03-02T18:38:30.032Z,62.07
2018-03-02T18:40:58.514Z,64.67
2018-03-02T18:43:26.974Z,62.87
2018-03-02T18:45:55.469Z,63.37
2018-03-02T18:48:23.977Z,61.03
2018-03-02T18:50:52.451Z,58.10
2018-03-02T18:53:20.914Z,58.83
2018-03-02T18:55:49.416Z,59.40
2018-03-02T18:58:17.884Z,61.87
2018-03-02T19:00:46.386Z,64.53
2018-03-02T19:03:14.857Z,62.87
2018-03-02T19:05:43.318Z,63.70
2018-03-02T19:08:11.821Z,70.97
2018-03-02T19:10:40.294Z,73.70
2018-03-02T19:13:08.814Z,71.40
2018-03-02T19:15:37.802Z,76.00
2018-03-02T19:18:06.308Z,74.67
2018-03-02T19:20:34.850Z,68.90
2018-03-02T19:23:03.414Z,73.57
2018-03-02T19:25:31.874Z,71.93
2018-03-02T19:28:00.320Z,73.13
2018-03-02T19:30:28.860Z,77.20
2018-03-02T19:32:57.363Z,70.37
2018-03-02T19:35:25.826Z,67.90
2018-03-02T19:37:54.338Z,65.83
2018-03-02T19:40:22.819Z,61.97
2018-03-02T19:42:51.327Z,65.20
2018-03-02T19:45:19.884Z,65.90
2018-03-02T19:47:48.360Z,69.23
2018-03-02T19:50:16.866Z,65.97
2018-03-02T19:52:45.335Z,73.57
2018-03-02T19:55:13.826Z,62.03
2018-03-02T19:57:42.358Z,67.33
2018-03-02T20:00:10.838Z,66.67
2018-03-02T20:02:39.315Z,65.07
2018-03-02T20:05:07.822Z,65.03
2018-03-02T20:07:36.330Z,62.50
2018-03-02T20:10:04.809Z,61.37
2018-03-02T20:12:33.291Z,56.80
2018-03-02T20:15:01.795Z,57.43
2018-03-02T20:17:30.299Z,62.03
2018-03-02T20:19:58.765Z,80.67
2018-03-02T20:22:27.306Z,84.60
2018-03-02T20:24:55.786Z,90.63
2018-03-02T20:27:24.246Z,95.90
2018-03-02T20:29:52.782Z,104.27
2018-03-02T20:32:21.267Z,96.77
2018-03-02T20:34:49.784Z,112.40
2018-03-02T20:37:18.255Z,105.90
2018-03-02T20:39:46.801Z,112.70
2018-03-02T20:42:15.431Z,124.47
2018-03-02T20:44:43.934Z,121.33
2018-03-02T20:47:12.398Z,137.13
2018-03-02T20:49:40.950Z,123.13
2018-03-02T20:52:09.465Z,124.07
2018-03-02T20:54:38.005Z,126.23
2018-03-02T20:57:06.546Z,132.63
2018-03-02T20:59:35.115Z,137.23
2018-03-02T21:02:03.588Z,133.50
2018-03-02T21:04:32.157Z,127.77
2018-03-02T21:07:00.635Z,129.50
2018-03-02T21:09:29.104Z,134.80
2018-03-02T21:11:57.606Z,128.07
2018-03-02T21:14:26.113Z,123.53
2018-03-02T21:16:54.582Z,125.40
2018-03-02T21:19:23.090Z,127.23
2018-03-02T21:21:51.595Z,119.13
2018-03-02T21:24:20.056Z,135.07
2018-03-02T21:26:48.559Z,122.40
2018-03-02T21:29:17.023Z,124.00
2018-03-02T21:31:45.527Z,126.57
2018-03-02T21:34:18.975Z,129.47
2018-03-02T21:36:42.552Z,131.23
2018-03-02T21:39:12.138Z,123.80
2018-03-02T21:41:39.534Z,133.03
2018-03-02T21:44:08.049Z,122.90
2018-03-02T21:46:36.506Z,125.53
2018-03-02T21:49:04.995Z,126.57
2018-03-02T21:51:33.501Z,127.83
2018-03-02T21:54:01.962Z,127.83
2018-03-02T21:56:30.484Z,127.27
2018-03-02T21:58:58.987Z,125.67
2018-03-02T22:01:27.450Z,132.53
2018-03-02T22:03:56.014Z,128.43
2018-03-02T22:06:24.482Z,127.93
2018-03-02T22:08:52.945Z,115.93
2018-03-02T22:11:21.467Z,118.07
2018-03-02T22:13:49.976Z,117.77
2018-03-02T22:16:18.501Z,125.63
2018-03-02T22:18:46.970Z,128.73
2018-03-02T22:21:15.479Z,122.30
2018-03-02T22:23:43.947Z,132.63
2018-03-02T22:26:12.446Z,128.93
2018-03-02T22:28:40.982Z,120.90
2018-03-02T22:31:09.489Z,130.03
2018-03-02T22:33:38.003Z,127.10
2018-03-02T22:36:06.510Z,124.30
2018-03-02T22:38:34.989Z,120.60
2018-03-02T22:41:03.462Z,119.67
2018-03-02T22:43:31.966Z,117.93
2018-03-02T22:46:00.445Z,115.80
2018-03-02T22:48:28.954Z,110.47
2018-03-02T22:50:57.458Z,114.33
2018-03-02T22:53:25.921Z,120.87
2018-03-02T22:55:54.430Z,104.87
2018-03-02T22:58:22.897Z,99.00
2018-03-02T23:00:51.407Z,102.60
2018-03-02T23:03:19.870Z,93.13
2018-03-02T23:05:48.361Z,89.83
2018-03-02T23:08:16.851Z,98.50
2018-03-02T23:10:45.325Z,94.90
2018-03-02T23:13:13.819Z,92.20
2018-03-02T23:15:42.300Z,97.77
2018-03-02T23:18:10.818Z,99.90
2018-03-02T23:20:39.302Z,94.33
2018-03-02T23:23:07.802Z,93.80
2018-03-02T23:25:36.298Z,98.20
2018-03-02T23:28:04.804Z,95.27
2018-03-02T23:30:33.290Z,99.53
2018-03-02T23:33:01.814Z,99.30
2018-03-02T23:35:30.261Z,106.53
2018-03-02T23:37:59.709Z,98.37
2018-03-02T23:40:28.187Z,104.70
2018-03-02T23:42:56.683Z,105.70
2018-03-02T23:45:25.145Z,96.90
2018-03-02T23:47:53.633Z,96.37
2018-03-02T23:50:22.098Z,102.77
2018-03-02T23:52:50.612Z,107.03
2018-03-02T23:55:19.103Z,99.40
2018-03-02T23:57:47.635Z,104.00
